sensor_id;sensor_type;location;lat;lon;timestamp;P1;durP1;ratioP1;P2;durP2;ratioP2
27642;SDS011;15053;48.618;10.024;2023-01-23T00:01:27;22.60;;;12.65;;
27642;SDS011;15053;48.618;10.024;2023-01-23T00:03:56;26.50;;;13.43;;
27642;SDS011;15053;48.618;10.024;2023-01-23T00:06:23;24.52;;;12.05;;
27642;SDS011;15053;48.618;10.024;2023-01-23T00:08:50;27.20;;;12.93;;
27642;SDS011;15053;48.618;10.024;2023-01-23T00:11:18;26.98;;;13.73;;
27642;SDS011;15053;48.618;10.024;2023-01-23T00:13:48;26.52;;;13.82;;
27642;SDS011;15053;48.618;10.024;2023-01-23T00:16:24;24.30;;;11.93;;
27642;SDS011;15053;48.618;10.024;2023-01-23T00:18:52;23.05;;;12.00;;
27642;SDS011;15053;48.618;10.024;2023-01-23T00:21:22;23.48;;;12.07;;
27642;SDS011;15053;48.618;10.024;2023-01-23T00:23:52;21.45;;;11.73;;
27642;SDS011;15053;48.618;10.024;2023-01-23T00:26:21;22.45;;;12.45;;
27642;SDS011;15053;48.618;10.024;2023-01-23T00:28:50;22.83;;;11.23;;
27642;SDS011;15053;48.618;10.024;2023-01-23T00:31:24;23.05;;;12.10;;
27642;SDS011;15053;48.618;10.024;2023-01-23T00:33:54;21.42;;;11.23;;
27642;SDS011;15053;48.618;10.024;2023-01-23T00:36:27;21.90;;;11.45;;
27642;SDS011;15053;48.618;10.024;2023-01-23T00:38:56;23.92;;;11.77;;
27642;SDS011;15053;48.618;10.024;2023-01-23T00:41:23;22.48;;;11.68;;
27642;SDS011;15053;48.618;10.024;2023-01-23T00:43:51;26.65;;;11.95;;
27642;SDS011;15053;48.618;10.024;2023-01-23T00:46:18;20.35;;;10.15;;
27642;SDS011;15053;48.618;10.024;2023-01-23T00:48:46;20.30;;;11.00;;
27642;SDS011;15053;48.618;10.024;2023-01-23T00:51:13;21.67;;;10.98;;
27642;SDS011;15053;48.618;10.024;2023-01-23T00:53:40;19.30;;;9.68;;
27642;SDS011;15053;48.618;10.024;2023-01-23T00:56:07;20.95;;;11.40;;
27642;SDS011;15053;48.618;10.024;2023-01-23T00:58:34;21.13;;;10.68;;
27642;SDS011;15053;48.618;10.024;2023-01-23T01:01:00;19.38;;;10.88;;
27642;SDS011;15053;48.618;10.024;2023-01-23T01:03:27;18.05;;;9.75;;
27642;SDS011;15053;48.618;10.024;2023-01-23T01:05:53;19.50;;;10.23;;
27642;SDS011;15053;48.618;10.024;2023-01-23T01:08:20;19.58;;;10.52;;
27642;SDS011;15053;48.618;10.024;2023-01-23T01:10:46;19.38;;;10.45;;
27642;SDS011;15053;48.618;10.024;2023-01-23T01:13:13;19.33;;;10.00;;
27642;SDS011;15053;48.618;10.024;2023-01-23T01:15:42;18.52;;;9.48;;
27642;SDS011;15053;48.618;10.024;2023-01-23T01:18:08;21.40;;;11.32;;
27642;SDS011;15053;48.618;10.024;2023-01-23T01:20:35;19.33;;;11.02;;
27642;SDS011;15053;48.618;10.024;2023-01-23T01:23:01;19.15;;;9.48;;
27642;SDS011;15053;48.618;10.024;2023-01-23T01:25:28;17.40;;;9.30;;
27642;SDS011;15053;48.618;10.024;2023-01-23T01:27:55;17.80;;;9.05;;
27642;SDS011;15053;48.618;10.024;2023-01-23T01:30:22;17.35;;;9.23;;
27642;SDS011;15053;48.618;10.024;2023-01-23T01:32:51;15.98;;;8.85;;
27642;SDS011;15053;48.618;10.024;2023-01-23T01:35:19;19.25;;;9.65;;
27642;SDS011;15053;48.618;10.024;2023-01-23T01:37:46;20.48;;;9.73;;
27642;SDS011;15053;48.618;10.024;2023-01-23T01:40:14;19.48;;;9.98;;
27642;SDS011;15053;48.618;10.024;2023-01-23T01:42:49;18.95;;;9.15;;
27642;SDS011;15053;48.618;10.024;2023-01-23T01:48:39;18.02;;;9.80;;
27642;SDS011;15053;48.618;10.024;2023-01-23T01:51:15;17.75;;;9.93;;
27642;SDS011;15053;48.618;10.024;2023-01-23T01:56:48;21.05;;;11.00;;
27642;SDS011;15053;48.618;10.024;2023-01-23T01:59:20;18.83;;;9.77;;
27642;SDS011;15053;48.618;10.024;2023-01-23T02:01:50;16.92;;;9.23;;
27642;SDS011;15053;48.618;10.024;2023-01-23T02:04:22;21.75;;;10.27;;
27642;SDS011;15053;48.618;10.024;2023-01-23T02:06:49;18.83;;;10.10;;
27642;SDS011;15053;48.618;10.024;2023-01-23T02:09:19;19.50;;;9.68;;
27642;SDS011;15053;48.618;10.024;2023-01-23T02:11:50;21.08;;;10.98;;
27642;SDS011;15053;48.618;10.024;2023-01-23T02:14:18;21.65;;;10.80;;
27642;SDS011;15053;48.618;10.024;2023-01-23T02:16:47;19.20;;;10.13;;
27642;SDS011;15053;48.618;10.024;2023-01-23T02:19:26;20.42;;;10.88;;
27642;SDS011;15053;48.618;10.024;2023-01-23T02:22:06;22.08;;;11.25;;
27642;SDS011;15053;48.618;10.024;2023-01-23T02:24:43;22.50;;;11.48;;
27642;SDS011;15053;48.618;10.024;2023-01-23T02:27:23;19.90;;;10.77;;
27642;SDS011;15053;48.618;10.024;2023-01-23T02:29:51;20.45;;;10.82;;
27642;SDS011;15053;48.618;10.024;2023-01-23T02:32:18;19.55;;;10.00;;
27642;SDS011;15053;48.618;10.024;2023-01-23T02:34:47;20.40;;;11.13;;
27642;SDS011;15053;48.618;10.024;2023-01-23T02:37:13;21.55;;;11.07;;
27642;SDS011;15053;48.618;10.024;2023-01-23T02:39:42;22.08;;;10.98;;
27642;SDS011;15053;48.618;10.024;2023-01-23T02:42:10;18.63;;;10.85;;
27642;SDS011;15053;48.618;10.024;2023-01-23T02:44:45;20.90;;;10.43;;
27642;SDS011;15053;48.618;10.024;2023-01-23T02:47:14;19.45;;;11.15;;
27642;SDS011;15053;48.618;10.024;2023-01-23T02:49:40;21.33;;;11.00;;
27642;SDS011;15053;48.618;10.024;2023-01-23T02:52:08;18.50;;;10.13;;
27642;SDS011;15053;48.618;10.024;2023-01-23T02:54:35;17.35;;;10.05;;
27642;SDS011;15053;48.618;10.024;2023-01-23T02:57:02;21.67;;;10.30;;
27642;SDS011;15053;48.618;10.024;2023-01-23T02:59:29;20.05;;;10.45;;
27642;SDS011;15053;48.618;10.024;2023-01-23T03:02:14;20.00;;;10.18;;
27642;SDS011;15053;48.618;10.024;2023-01-23T03:04:41;19.00;;;10.23;;
27642;SDS011;15053;48.618;10.024;2023-01-23T03:07:07;17.67;;;9.52;;
27642;SDS011;15053;48.618;10.024;2023-01-23T03:09:34;18.48;;;8.82;;
27642;SDS011;15053;48.618;10.024;2023-01-23T03:12:00;16.73;;;8.70;;
27642;SDS011;15053;48.618;10.024;2023-01-23T03:14:27;17.25;;;9.48;;
27642;SDS011;15053;48.618;10.024;2023-01-23T03:16:55;16.13;;;8.73;;
27642;SDS011;15053;48.618;10.024;2023-01-23T03:19:28;16.55;;;8.82;;
27642;SDS011;15053;48.618;10.024;2023-01-23T03:21:54;19.73;;;10.13;;
27642;SDS011;15053;48.618;10.024;2023-01-23T03:24:21;20.65;;;10.85;;
27642;SDS011;15053;48.618;10.024;2023-01-23T03:26:48;16.70;;;8.60;;
27642;SDS011;15053;48.618;10.024;2023-01-23T03:29:19;18.58;;;9.98;;
27642;SDS011;15053;48.618;10.024;2023-01-23T03:32:08;17.38;;;9.30;;
27642;SDS011;15053;48.618;10.024;2023-01-23T03:34:36;17.15;;;9.50;;
27642;SDS011;15053;48.618;10.024;2023-01-23T03:37:03;18.55;;;9.57;;
27642;SDS011;15053;48.618;10.024;2023-01-23T03:39:34;20.42;;;10.30;;
27642;SDS011;15053;48.618;10.024;2023-01-23T03:42:19;18.13;;;9.07;;
27642;SDS011;15053;48.618;10.024;2023-01-23T03:44:50;19.98;;;10.73;;
27642;SDS011;15053;48.618;10.024;2023-01-23T03:47:20;25.35;;;12.23;;
27642;SDS011;15053;48.618;10.024;2023-01-23T03:49:46;19.00;;;9.77;;
27642;SDS011;15053;48.618;10.024;2023-01-23T03:52:13;22.77;;;10.68;;
27642;SDS011;15053;48.618;10.024;2023-01-23T03:54:41;22.50;;;11.48;;
27642;SDS011;15053;48.618;10.024;2023-01-23T03:57:08;22.42;;;10.75;;
27642;SDS011;15053;48.618;10.024;2023-01-23T04:00:00;17.25;;;9.52;;
27642;SDS011;15053;48.618;10.024;2023-01-23T04:02:38;21.75;;;11.18;;
27642;SDS011;15053;48.618;10.024;2023-01-23T04:05:08;20.00;;;10.00;;
27642;SDS011;15053;48.618;10.024;2023-01-23T04:07:35;22.33;;;10.98;;
27642;SDS011;15053;48.618;10.024;2023-01-23T04:10:01;22.40;;;11.30;;
27642;SDS011;15053;48.618;10.024;2023-01-23T04:12:28;22.48;;;12.18;;
27642;SDS011;15053;48.618;10.024;2023-01-23T04:14:54;22.83;;;11.32;;
27642;SDS011;15053;48.618;10.024;2023-01-23T04:17:21;29.00;;;12.35;;
27642;SDS011;15053;48.618;10.024;2023-01-23T04:19:47;24.17;;;11.63;;
27642;SDS011;15053;48.618;10.024;2023-01-23T04:22:14;21.58;;;10.02;;
27642;SDS011;15053;48.618;10.024;2023-01-23T04:24:45;25.08;;;12.43;;
27642;SDS011;15053;48.618;10.024;2023-01-23T04:27:12;23.60;;;12.23;;
27642;SDS011;15053;48.618;10.024;2023-01-23T04:29:39;25.55;;;12.57;;
27642;SDS011;15053;48.618;10.024;2023-01-23T04:32:07;26.40;;;12.75;;
27642;SDS011;15053;48.618;10.024;2023-01-23T04:34:39;22.95;;;11.73;;
27642;SDS011;15053;48.618;10.024;2023-01-23T04:37:07;22.65;;;12.55;;
27642;SDS011;15053;48.618;10.024;2023-01-23T04:39:34;23.65;;;12.13;;
27642;SDS011;15053;48.618;10.024;2023-01-23T04:42:00;23.30;;;12.02;;
27642;SDS011;15053;48.618;10.024;2023-01-23T04:44:43;23.63;;;10.98;;
27642;SDS011;15053;48.618;10.024;2023-01-23T04:47:28;20.10;;;11.13;;
27642;SDS011;15053;48.618;10.024;2023-01-23T04:49:56;27.90;;;12.52;;
27642;SDS011;15053;48.618;10.024;2023-01-23T04:52:23;20.25;;;11.07;;
27642;SDS011;15053;48.618;10.024;2023-01-23T04:54:55;21.08;;;10.55;;
27642;SDS011;15053;48.618;10.024;2023-01-23T04:57:22;22.65;;;11.52;;
27642;SDS011;15053;48.618;10.024;2023-01-23T04:59:55;22.77;;;12.27;;
27642;SDS011;15053;48.618;10.024;2023-01-23T05:02:23;24.48;;;11.85;;
27642;SDS011;15053;48.618;10.024;2023-01-23T05:04:50;21.13;;;11.40;;
27642;SDS011;15053;48.618;10.024;2023-01-23T05:07:17;25.00;;;12.45;;
27642;SDS011;15053;48.618;10.024;2023-01-23T05:09:56;22.60;;;12.68;;
27642;SDS011;15053;48.618;10.024;2023-01-23T05:12:23;25.08;;;13.02;;
27642;SDS011;15053;48.618;10.024;2023-01-23T05:14:49;30.02;;;14.10;;
27642;SDS011;15053;48.618;10.024;2023-01-23T05:17:16;27.13;;;12.98;;
27642;SDS011;15053;48.618;10.024;2023-01-23T05:19:49;20.02;;;11.32;;
27642;SDS011;15053;48.618;10.024;2023-01-23T05:22:16;19.13;;;10.20;;
27642;SDS011;15053;48.618;10.024;2023-01-23T05:24:43;21.73;;;11.57;;
27642;SDS011;15053;48.618;10.024;2023-01-23T05:27:10;19.48;;;10.25;;
27642;SDS011;15053;48.618;10.024;2023-01-23T05:29:40;24.35;;;11.43;;
27642;SDS011;15053;48.618;10.024;2023-01-23T05:32:14;21.55;;;11.45;;
27642;SDS011;15053;48.618;10.024;2023-01-23T05:34:41;18.50;;;10.00;;
27642;SDS011;15053;48.618;10.024;2023-01-23T05:37:16;22.65;;;11.38;;
27642;SDS011;15053;48.618;10.024;2023-01-23T05:39:47;19.25;;;10.38;;
27642;SDS011;15053;48.618;10.024;2023-01-23T05:42:14;25.83;;;12.63;;
27642;SDS011;15053;48.618;10.024;2023-01-23T05:44:57;25.63;;;11.80;;
27642;SDS011;15053;48.618;10.024;2023-01-23T05:47:28;19.63;;;10.50;;
27642;SDS011;15053;48.618;10.024;2023-01-23T05:49:56;20.48;;;11.38;;
27642;SDS011;15053;48.618;10.024;2023-01-23T05:52:27;22.70;;;11.68;;
27642;SDS011;15053;48.618;10.024;2023-01-23T05:54:54;22.77;;;12.68;;
27642;SDS011;15053;48.618;10.024;2023-01-23T05:57:21;19.55;;;10.32;;
27642;SDS011;15053;48.618;10.024;2023-01-23T06:00:07;21.27;;;11.48;;
27642;SDS011;15053;48.618;10.024;2023-01-23T06:02:55;24.70;;;12.68;;
27642;SDS011;15053;48.618;10.024;2023-01-23T06:05:40;24.45;;;12.45;;
27642;SDS011;15053;48.618;10.024;2023-01-23T06:08:14;23.75;;;12.50;;
27642;SDS011;15053;48.618;10.024;2023-01-23T06:10:41;24.40;;;12.35;;
27642;SDS011;15053;48.618;10.024;2023-01-23T06:13:08;29.45;;;13.05;;
27642;SDS011;15053;48.618;10.024;2023-01-23T06:15:35;29.17;;;14.60;;
27642;SDS011;15053;48.618;10.024;2023-01-23T06:18:07;26.25;;;12.68;;
27642;SDS011;15053;48.618;10.024;2023-01-23T06:20:33;26.45;;;12.50;;
27642;SDS011;15053;48.618;10.024;2023-01-23T06:23:01;22.20;;;12.00;;
27642;SDS011;15053;48.618;10.024;2023-01-23T06:25:27;23.10;;;11.98;;
27642;SDS011;15053;48.618;10.024;2023-01-23T06:27:56;23.05;;;13.05;;
27642;SDS011;15053;48.618;10.024;2023-01-23T06:30:26;24.95;;;13.88;;
27642;SDS011;15053;48.618;10.024;2023-01-23T06:32:53;25.25;;;13.52;;
27642;SDS011;15053;48.618;10.024;2023-01-23T06:35:26;23.27;;;12.05;;
27642;SDS011;15053;48.618;10.024;2023-01-23T06:37:53;24.63;;;12.45;;
27642;SDS011;15053;48.618;10.024;2023-01-23T06:40:21;25.00;;;12.90;;
27642;SDS011;15053;48.618;10.024;2023-01-23T06:43:05;30.83;;;14.30;;
27642;SDS011;15053;48.618;10.024;2023-01-23T06:45:31;29.95;;;14.35;;
27642;SDS011;15053;48.618;10.024;2023-01-23T06:47:58;26.58;;;14.55;;
27642;SDS011;15053;48.618;10.024;2023-01-23T06:50:26;22.27;;;12.48;;
27642;SDS011;15053;48.618;10.024;2023-01-23T06:52:52;28.38;;;13.25;;
27642;SDS011;15053;48.618;10.024;2023-01-23T06:55:20;24.15;;;11.65;;
27642;SDS011;15053;48.618;10.024;2023-01-23T06:57:47;24.98;;;12.55;;
27642;SDS011;15053;48.618;10.024;2023-01-23T07:00:14;25.48;;;13.07;;
27642;SDS011;15053;48.618;10.024;2023-01-23T07:02:41;28.30;;;13.60;;
27642;SDS011;15053;48.618;10.024;2023-01-23T07:05:10;35.08;;;16.02;;
27642;SDS011;15053;48.618;10.024;2023-01-23T07:07:42;30.67;;;14.13;;
27642;SDS011;15053;48.618;10.024;2023-01-23T07:10:09;29.85;;;14.63;;
27642;SDS011;15053;48.618;10.024;2023-01-23T07:12:36;26.60;;;12.88;;
27642;SDS011;15053;48.618;10.024;2023-01-23T07:15:03;23.77;;;12.57;;
27642;SDS011;15053;48.618;10.024;2023-01-23T07:17:36;21.75;;;10.80;;
27642;SDS011;15053;48.618;10.024;2023-01-23T07:20:03;28.83;;;12.00;;
27642;SDS011;15053;48.618;10.024;2023-01-23T07:22:34;26.95;;;10.90;;
27642;SDS011;15053;48.618;10.024;2023-01-23T07:25:00;21.50;;;11.52;;
27642;SDS011;15053;48.618;10.024;2023-01-23T07:27:27;25.50;;;13.10;;
27642;SDS011;15053;48.618;10.024;2023-01-23T07:29:53;27.00;;;12.30;;
27642;SDS011;15053;48.618;10.024;2023-01-23T07:32:20;24.45;;;11.98;;
27642;SDS011;15053;48.618;10.024;2023-01-23T07:34:46;25.67;;;11.80;;
27642;SDS011;15053;48.618;10.024;2023-01-23T07:37:13;23.80;;;11.18;;
27642;SDS011;15053;48.618;10.024;2023-01-23T07:39:39;22.55;;;11.02;;
27642;SDS011;15053;48.618;10.024;2023-01-23T07:42:06;26.45;;;12.30;;
27642;SDS011;15053;48.618;10.024;2023-01-23T07:44:32;27.63;;;12.93;;
27642;SDS011;15053;48.618;10.024;2023-01-23T07:46:58;28.65;;;14.15;;
27642;SDS011;15053;48.618;10.024;2023-01-23T07:49:25;23.00;;;11.55;;
27642;SDS011;15053;48.618;10.024;2023-01-23T07:51:51;22.70;;;11.50;;
27642;SDS011;15053;48.618;10.024;2023-01-23T07:54:18;21.17;;;10.02;;
27642;SDS011;15053;48.618;10.024;2023-01-23T07:56:47;21.27;;;11.80;;
27642;SDS011;15053;48.618;10.024;2023-01-23T07:59:15;18.55;;;9.98;;
27642;SDS011;15053;48.618;10.024;2023-01-23T08:01:41;20.80;;;10.73;;
27642;SDS011;15053;48.618;10.024;2023-01-23T08:04:08;20.05;;;10.88;;
27642;SDS011;15053;48.618;10.024;2023-01-23T08:06:35;21.58;;;10.75;;
27642;SDS011;15053;48.618;10.024;2023-01-23T08:09:02;18.30;;;8.95;;
27642;SDS011;15053;48.618;10.024;2023-01-23T08:11:28;22.73;;;10.35;;
27642;SDS011;15053;48.618;10.024;2023-01-23T08:13:55;21.08;;;9.85;;
27642;SDS011;15053;48.618;10.024;2023-01-23T08:16:21;19.42;;;9.90;;
27642;SDS011;15053;48.618;10.024;2023-01-23T08:18:48;22.63;;;10.98;;
27642;SDS011;15053;48.618;10.024;2023-01-23T08:21:15;20.23;;;10.43;;
27642;SDS011;15053;48.618;10.024;2023-01-23T08:23:41;25.90;;;12.60;;
27642;SDS011;15053;48.618;10.024;2023-01-23T08:26:09;24.58;;;12.23;;
27642;SDS011;15053;48.618;10.024;2023-01-23T08:28:36;26.08;;;11.68;;
27642;SDS011;15053;48.618;10.024;2023-01-23T08:31:04;22.65;;;10.70;;
27642;SDS011;15053;48.618;10.024;2023-01-23T08:33:33;20.90;;;10.52;;
27642;SDS011;15053;48.618;10.024;2023-01-23T08:36:01;25.55;;;11.80;;
27642;SDS011;15053;48.618;10.024;2023-01-23T08:38:27;23.55;;;12.25;;
27642;SDS011;15053;48.618;10.024;2023-01-23T08:40:56;23.75;;;11.65;;
27642;SDS011;15053;48.618;10.024;2023-01-23T08:43:24;26.23;;;12.40;;
27642;SDS011;15053;48.618;10.024;2023-01-23T08:45:52;24.20;;;11.13;;
27642;SDS011;15053;48.618;10.024;2023-01-23T08:48:20;25.00;;;12.13;;
27642;SDS011;15053;48.618;10.024;2023-01-23T08:50:48;24.45;;;11.07;;
27642;SDS011;15053;48.618;10.024;2023-01-23T08:53:15;22.08;;;10.75;;
27642;SDS011;15053;48.618;10.024;2023-01-23T08:55:42;20.98;;;10.23;;
27642;SDS011;15053;48.618;10.024;2023-01-23T08:58:09;25.00;;;11.30;;
27642;SDS011;15053;48.618;10.024;2023-01-23T09:00:38;21.67;;;9.90;;
27642;SDS011;15053;48.618;10.024;2023-01-23T09:03:05;20.10;;;10.32;;
27642;SDS011;15053;48.618;10.024;2023-01-23T09:05:31;21.13;;;10.63;;
27642;SDS011;15053;48.618;10.024;2023-01-23T09:07:58;17.75;;;9.73;;
27642;SDS011;15053;48.618;10.024;2023-01-23T09:10:25;21.70;;;10.75;;
27642;SDS011;15053;48.618;10.024;2023-01-23T09:12:52;22.33;;;10.70;;
27642;SDS011;15053;48.618;10.024;2023-01-23T09:15:20;22.08;;;11.27;;
27642;SDS011;15053;48.618;10.024;2023-01-23T09:17:48;21.00;;;11.32;;
27642;SDS011;15053;48.618;10.024;2023-01-23T09:20:14;21.65;;;11.07;;
27642;SDS011;15053;48.618;10.024;2023-01-23T09:22:42;23.30;;;11.35;;
27642;SDS011;15053;48.618;10.024;2023-01-23T09:25:10;24.20;;;12.52;;
27642;SDS011;15053;48.618;10.024;2023-01-23T09:27:37;24.40;;;11.95;;
27642;SDS011;15053;48.618;10.024;2023-01-23T09:30:03;23.15;;;11.52;;
27642;SDS011;15053;48.618;10.024;2023-01-23T09:32:30;24.55;;;11.98;;
27642;SDS011;15053;48.618;10.024;2023-01-23T09:34:57;21.67;;;10.85;;
27642;SDS011;15053;48.618;10.024;2023-01-23T09:37:24;25.55;;;12.10;;
27642;SDS011;15053;48.618;10.024;2023-01-23T09:39:50;22.92;;;12.52;;
27642;SDS011;15053;48.618;10.024;2023-01-23T09:42:18;25.88;;;13.25;;
27642;SDS011;15053;48.618;10.024;2023-01-23T09:44:49;26.45;;;12.68;;
27642;SDS011;15053;48.618;10.024;2023-01-23T09:47:25;22.60;;;11.70;;
27642;SDS011;15053;48.618;10.024;2023-01-23T09:50:00;30.40;;;13.60;;
27642;SDS011;15053;48.618;10.024;2023-01-23T09:52:40;26.48;;;14.23;;
27642;SDS011;15053;48.618;10.024;2023-01-23T09:57:45;32.40;;;14.70;;
27642;SDS011;15053;48.618;10.024;2023-01-23T10:00:25;30.02;;;14.35;;
27642;SDS011;15053;48.618;10.024;2023-01-23T10:02:55;31.42;;;15.93;;
27642;SDS011;15053;48.618;10.024;2023-01-23T10:08:09;33.05;;;15.30;;
27642;SDS011;15053;48.618;10.024;2023-01-23T10:16:32;26.90;;;13.52;;
27642;SDS011;15053;48.618;10.024;2023-01-23T10:24:49;26.77;;;12.57;;
27642;SDS011;15053;48.618;10.024;2023-01-23T10:27:22;22.30;;;11.95;;
27642;SDS011;15053;48.618;10.024;2023-01-23T10:30:13;28.27;;;14.80;;
27642;SDS011;15053;48.618;10.024;2023-01-23T10:35:39;25.70;;;13.38;;
27642;SDS011;15053;48.618;10.024;2023-01-23T10:38:17;28.38;;;13.52;;
27642;SDS011;15053;48.618;10.024;2023-01-23T10:40:51;26.60;;;13.35;;
27642;SDS011;15053;48.618;10.024;2023-01-23T10:43:36;22.63;;;12.35;;
27642;SDS011;15053;48.618;10.024;2023-01-23T10:46:16;22.38;;;11.57;;
27642;SDS011;15053;48.618;10.024;2023-01-23T10:51:32;23.02;;;11.88;;
27642;SDS011;15053;48.618;10.024;2023-01-23T10:54:19;25.63;;;13.40;;
27642;SDS011;15053;48.618;10.024;2023-01-23T10:57:17;23.45;;;11.38;;
27642;SDS011;15053;48.618;10.024;2023-01-23T10:59:52;24.85;;;12.68;;
27642;SDS011;15053;48.618;10.024;2023-01-23T11:02:26;26.88;;;12.95;;
27642;SDS011;15053;48.618;10.024;2023-01-23T11:07:23;28.70;;;13.45;;
27642;SDS011;15053;48.618;10.024;2023-01-23T11:09:53;32.60;;;14.68;;
27642;SDS011;15053;48.618;10.024;2023-01-23T11:12:26;29.33;;;14.43;;
27642;SDS011;15053;48.618;10.024;2023-01-23T11:15:11;30.27;;;15.23;;
27642;SDS011;15053;48.618;10.024;2023-01-23T11:17:45;24.55;;;12.32;;
27642;SDS011;15053;48.618;10.024;2023-01-23T11:20:22;30.52;;;13.63;;
27642;SDS011;15053;48.618;10.024;2023-01-23T11:30:53;27.98;;;12.73;;
27642;SDS011;15053;48.618;10.024;2023-01-23T11:33:55;27.13;;;13.00;;
27642;SDS011;15053;48.618;10.024;2023-01-23T11:42:06;27.45;;;12.82;;
27642;SDS011;15053;48.618;10.024;2023-01-23T11:44:37;28.45;;;13.10;;
27642;SDS011;15053;48.618;10.024;2023-01-23T11:47:33;25.38;;;12.93;;
27642;SDS011;15053;48.618;10.024;2023-01-23T11:52:49;31.73;;;14.10;;
27642;SDS011;15053;48.618;10.024;2023-01-23T11:55:30;30.17;;;13.48;;
27642;SDS011;15053;48.618;10.024;2023-01-23T12:01:39;27.17;;;13.32;;
27642;SDS011;15053;48.618;10.024;2023-01-23T12:06:40;25.95;;;14.20;;
27642;SDS011;15053;48.618;10.024;2023-01-23T12:14:57;23.60;;;11.93;;
27642;SDS011;15053;48.618;10.024;2023-01-23T12:17:50;23.52;;;12.20;;
27642;SDS011;15053;48.618;10.024;2023-01-23T12:20:49;26.13;;;10.90;;
27642;SDS011;15053;48.618;10.024;2023-01-23T12:23:26;22.70;;;11.95;;
27642;SDS011;15053;48.618;10.024;2023-01-23T12:34:14;24.27;;;12.38;;
27642;SDS011;15053;48.618;10.024;2023-01-23T12:36:58;21.77;;;10.32;;
27642;SDS011;15053;48.618;10.024;2023-01-23T12:39:46;24.45;;;11.77;;
27642;SDS011;15053;48.618;10.024;2023-01-23T12:42:20;26.02;;;12.57;;
27642;SDS011;15053;48.618;10.024;2023-01-23T12:44:57;26.27;;;13.20;;
27642;SDS011;15053;48.618;10.024;2023-01-23T12:47:33;22.13;;;11.70;;
27642;SDS011;15053;48.618;10.024;2023-01-23T12:55:26;22.48;;;10.90;;
27642;SDS011;15053;48.618;10.024;2023-01-23T12:57:59;19.50;;;10.45;;
27642;SDS011;15053;48.618;10.024;2023-01-23T13:00:41;23.08;;;10.50;;
27642;SDS011;15053;48.618;10.024;2023-01-23T13:11:27;20.50;;;9.93;;
27642;SDS011;15053;48.618;10.024;2023-01-23T13:14:15;21.90;;;10.82;;
27642;SDS011;15053;48.618;10.024;2023-01-23T13:17:30;30.52;;;11.75;;
27642;SDS011;15053;48.618;10.024;2023-01-23T13:20:19;21.67;;;10.90;;
27642;SDS011;15053;48.618;10.024;2023-01-23T13:23:17;23.05;;;11.07;;
27642;SDS011;15053;48.618;10.024;2023-01-23T13:25:45;22.77;;;11.98;;
27642;SDS011;15053;48.618;10.024;2023-01-23T13:36:43;23.35;;;10.68;;
27642;SDS011;15053;48.618;10.024;2023-01-23T13:41:45;20.73;;;10.95;;
27642;SDS011;15053;48.618;10.024;2023-01-23T13:52:38;21.67;;;10.68;;
27642;SDS011;15053;48.618;10.024;2023-01-23T13:55:43;24.77;;;12.77;;
27642;SDS011;15053;48.618;10.024;2023-01-23T13:58:44;21.83;;;11.63;;
27642;SDS011;15053;48.618;10.024;2023-01-23T14:01:27;24.70;;;11.55;;
27642;SDS011;15053;48.618;10.024;2023-01-23T14:04:35;21.85;;;11.65;;
27642;SDS011;15053;48.618;10.024;2023-01-23T14:07:40;22.50;;;12.02;;
27642;SDS011;15053;48.618;10.024;2023-01-23T14:10:29;18.45;;;10.82;;
27642;SDS011;15053;48.618;10.024;2023-01-23T14:13:13;21.10;;;11.25;;
27642;SDS011;15053;48.618;10.024;2023-01-23T14:15:54;20.30;;;10.90;;
27642;SDS011;15053;48.618;10.024;2023-01-23T14:18:51;20.92;;;10.98;;
27642;SDS011;15053;48.618;10.024;2023-01-23T14:21:33;22.60;;;11.55;;
27642;SDS011;15053;48.618;10.024;2023-01-23T14:24:19;20.40;;;11.48;;
27642;SDS011;15053;48.618;10.024;2023-01-23T14:26:49;22.08;;;10.70;;
27642;SDS011;15053;48.618;10.024;2023-01-23T14:29:18;19.55;;;10.60;;
27642;SDS011;15053;48.618;10.024;2023-01-23T14:31:50;19.42;;;10.50;;
27642;SDS011;15053;48.618;10.024;2023-01-23T14:34:18;19.67;;;11.38;;
27642;SDS011;15053;48.618;10.024;2023-01-23T14:39:29;22.33;;;12.18;;
27642;SDS011;15053;48.618;10.024;2023-01-23T14:41:59;25.85;;;13.15;;
27642;SDS011;15053;48.618;10.024;2023-01-23T14:44:34;20.83;;;11.07;;
27642;SDS011;15053;48.618;10.024;2023-01-23T14:47:11;21.27;;;11.55;;
27642;SDS011;15053;48.618;10.024;2023-01-23T14:49:50;19.65;;;10.68;;
27642;SDS011;15053;48.618;10.024;2023-01-23T14:52:20;24.00;;;12.00;;
27642;SDS011;15053;48.618;10.024;2023-01-23T14:54:51;23.95;;;12.82;;
27642;SDS011;15053;48.618;10.024;2023-01-23T14:57:20;23.02;;;11.55;;
27642;SDS011;15053;48.618;10.024;2023-01-23T14:59:49;21.50;;;11.52;;
27642;SDS011;15053;48.618;10.024;2023-01-23T15:05:09;22.83;;;11.65;;
27642;SDS011;15053;48.618;10.024;2023-01-23T15:07:45;23.20;;;12.68;;
27642;SDS011;15053;48.618;10.024;2023-01-23T15:10:17;24.20;;;11.55;;
27642;SDS011;15053;48.618;10.024;2023-01-23T15:12:51;20.48;;;12.50;;
27642;SDS011;15053;48.618;10.024;2023-01-23T15:15:45;20.85;;;11.07;;
27642;SDS011;15053;48.618;10.024;2023-01-23T15:18:20;23.95;;;12.13;;
27642;SDS011;15053;48.618;10.024;2023-01-23T15:20:53;20.05;;;11.10;;
27642;SDS011;15053;48.618;10.024;2023-01-23T15:23:24;18.65;;;10.23;;
27642;SDS011;15053;48.618;10.024;2023-01-23T15:26:09;19.67;;;10.70;;
27642;SDS011;15053;48.618;10.024;2023-01-23T15:28:57;19.98;;;10.98;;
27642;SDS011;15053;48.618;10.024;2023-01-23T15:31:30;23.67;;;11.05;;
27642;SDS011;15053;48.618;10.024;2023-01-23T15:36:48;23.13;;;11.45;;
27642;SDS011;15053;48.618;10.024;2023-01-23T15:39:32;23.75;;;12.13;;
27642;SDS011;15053;48.618;10.024;2023-01-23T15:44:38;22.17;;;11.40;;
27642;SDS011;15053;48.618;10.024;2023-01-23T15:47:06;17.83;;;10.50;;
27642;SDS011;15053;48.618;10.024;2023-01-23T15:49:33;23.75;;;12.27;;
27642;SDS011;15053;48.618;10.024;2023-01-23T15:52:12;22.60;;;11.85;;
27642;SDS011;15053;48.618;10.024;2023-01-23T15:54:42;22.77;;;12.32;;
27642;SDS011;15053;48.618;10.024;2023-01-23T15:57:11;19.13;;;11.25;;
27642;SDS011;15053;48.618;10.024;2023-01-23T15:59:38;23.23;;;11.77;;
27642;SDS011;15053;48.618;10.024;2023-01-23T16:02:05;19.27;;;10.52;;
27642;SDS011;15053;48.618;10.024;2023-01-23T16:04:40;20.83;;;11.60;;
27642;SDS011;15053;48.618;10.024;2023-01-23T16:07:06;20.58;;;10.75;;
27642;SDS011;15053;48.618;10.024;2023-01-23T16:09:34;22.50;;;11.73;;
27642;SDS011;15053;48.618;10.024;2023-01-23T16:12:03;23.75;;;11.85;;
27642;SDS011;15053;48.618;10.024;2023-01-23T16:14:30;23.02;;;12.80;;
27642;SDS011;15053;48.618;10.024;2023-01-23T16:16:56;25.40;;;12.85;;
27642;SDS011;15053;48.618;10.024;2023-01-23T16:19:33;29.05;;;13.70;;
27642;SDS011;15053;48.618;10.024;2023-01-23T16:21:59;25.58;;;13.50;;
27642;SDS011;15053;48.618;10.024;2023-01-23T16:24:35;20.85;;;11.32;;
27642;SDS011;15053;48.618;10.024;2023-01-23T16:27:04;23.17;;;11.05;;
27642;SDS011;15053;48.618;10.024;2023-01-23T16:29:32;22.95;;;12.35;;